.
WxDataArchive / Data Records for 2016-06-12
2016-06-11 June 2016 2016-06-13

Data Records for Sunday, 12 June 2016

Time	Temp	Chill	HIndex	Humid	Dewpt	 Wind 	HiWind	WindDir	Rain 	Barom
-----	----	-----	------	-----	-----	------	------	-------	-----	-----
00:00	79.6	79.6	81.8	65	66.8	0	1	292	0.00	29.890 
00:05	79.8	79.8	82.1	65	67.0	0	1	292	0.00	29.890 
00:10	79.6	79.6	81.8	65	66.8	0	0	---	0.00	29.890 
00:15	79.4	79.4	81.6	65	66.6	0	1	292	0.00	29.886 
00:20	79.2	79.2	81.3	65	66.4	0	0	---	0.00	29.886 
00:25	79.0	79.0	81.0	65	66.2	0	0	---	0.00	29.886 
00:30	79.0	79.0	81.0	65	66.2	0	0	---	0.00	29.887 
00:35	78.8	78.8	80.9	66	66.5	0	0	---	0.00	29.887 
00:40	78.6	78.6	80.6	66	66.3	0	1	292	0.00	29.887 
00:45	78.6	78.6	80.6	66	66.3	0	1	292	0.00	29.891 
00:50	78.8	78.8	80.9	66	66.5	0	1	292	0.00	29.891 
00:55	78.8	78.8	80.8	65	66.0	0	0	---	0.00	29.891 
01:00	78.8	78.8	80.8	65	66.0	0	1	292	0.00	29.891 
01:05	78.8	78.8	80.8	65	66.0	0	0	---	0.00	29.891 
01:10	79.0	79.0	81.0	65	66.2	0	1	292	0.00	29.891 
01:15	79.0	79.0	81.0	65	66.2	0	0	---	0.00	29.897 
01:20	78.8	78.8	80.8	65	66.0	0	0	---	0.00	29.897 
01:25	78.6	78.6	80.6	65	65.8	0	0	---	0.00	29.897 
01:30	78.5	78.5	80.4	65	65.7	0	0	---	0.00	29.898 
01:35	78.3	78.3	80.2	66	66.0	0	0	---	0.00	29.898 
01:40	78.1	78.1	80.0	66	65.8	0	0	---	0.00	29.898 
01:45	77.9	77.9	79.8	66	65.6	0	0	---	0.00	29.898 
01:50	77.9	77.9	79.8	66	65.6	0	1	292	0.00	29.898 
01:55	77.9	77.9	79.8	66	65.6	0	1	292	0.00	29.898 
02:00	77.9	77.9	79.8	66	65.6	0	1	292	0.00	29.898 
02:05	77.9	77.9	79.8	66	65.6	0	1	292	0.00	29.898 
02:10	78.1	78.1	80.0	66	65.8	0	1	292	0.00	29.898 
02:15	78.3	78.3	80.2	66	66.0	0	2	292	0.00	29.897 
02:20	78.3	78.3	80.2	65	65.5	0	3	292	0.00	29.897 
02:25	78.5	78.5	80.4	65	65.7	1	3	292	0.00	29.897 
02:30	78.5	78.5	80.4	65	65.7	0	3	292	0.00	29.891 
02:35	78.6	78.6	80.6	65	65.8	0	2	292	0.00	29.891 
02:40	78.6	78.6	80.6	65	65.8	1	3	292	0.00	29.891 
02:45	78.6	78.6	80.6	65	65.8	0	2	292	0.00	29.896 
02:50	78.6	78.6	80.6	66	66.3	1	3	292	0.00	29.896 
02:55	78.6	78.6	80.6	66	66.3	1	3	292	0.00	29.896 
03:00	78.8	78.8	80.9	66	66.5	0	3	292	0.00	29.898 
03:05	78.6	78.6	80.6	66	66.3	0	3	292	0.00	29.898 
03:10	78.5	78.5	80.5	67	66.6	0	3	292	0.00	29.898 
03:15	78.3	78.3	80.3	67	66.4	0	1	292	0.00	29.899 
03:20	78.1	78.1	80.1	68	66.7	0	1	292	0.00	29.899 
03:25	77.9	77.9	79.8	68	66.5	0	1	292	0.00	29.899 
03:30	77.9	77.9	79.9	69	66.9	0	1	292	0.00	29.897 
03:35	77.7	77.7	79.6	69	66.7	0	1	292	0.00	29.897 
03:40	77.6	77.6	79.5	69	66.6	0	1	292	0.00	29.897 
03:45	77.4	77.4	79.3	70	66.8	0	1	292	0.00	29.899 
03:50	77.2	77.2	79.0	71	67.0	0	1	292	0.00	29.899 
03:55	77.2	77.2	79.0	71	67.0	0	3	292	0.00	29.899 
04:00	77.0	77.0	78.8	71	66.9	0	1	292	0.00	29.900 
04:05	77.0	77.0	78.7	72	67.3	0	1	292	0.00	29.900 
04:10	76.8	76.8	78.5	72	67.1	0	1	292	0.00	29.900 
04:15	76.8	76.8	78.5	73	67.5	0	1	292	0.00	29.905 
04:20	76.7	76.7	78.3	73	67.4	0	1	292	0.00	29.905 
04:25	76.7	76.7	78.3	73	67.4	0	1	292	0.00	29.905 
04:30	76.5	76.5	78.1	73	67.2	0	2	292	0.00	29.911 
04:35	76.5	76.5	78.1	74	67.6	0	3	292	0.00	29.911 
04:40	76.3	76.3	77.8	74	67.4	0	3	292	0.00	29.911 
04:45	76.3	76.3	77.8	74	67.4	0	2	292	0.00	29.918 
04:50	76.1	76.1	77.5	75	67.6	0	2	292	0.00	29.918 
04:55	76.0	76.0	77.4	75	67.5	0	2	292	0.00	29.918 
05:00	75.8	75.8	77.0	76	67.7	0	1	292	0.00	29.925 
05:05	75.8	75.8	77.0	76	67.7	0	2	292	0.00	29.925 
05:10	75.8	75.8	77.0	76	67.7	1	5	292	0.00	29.925 
05:15	75.8	75.8	77.1	75	67.3	1	4	292	0.00	29.921 
05:20	75.6	75.6	76.8	76	67.5	0	2	315	0.00	29.921 
05:25	75.4	75.4	76.5	76	67.3	0	1	315	0.00	29.921 
05:30	75.1	75.1	76.2	76	67.0	0	2	315	0.00	29.935 
05:35	74.9	74.9	74.9	75	66.4	0	4	315	0.00	29.935 
05:40	74.7	74.7	74.7	75	66.2	0	1	315	0.00	29.935 
05:45	74.6	74.6	74.6	75	66.1	0	1	315	0.00	29.943 
05:50	74.4	74.4	74.4	75	65.9	0	1	315	0.00	29.943 
05:55	74.0	74.0	74.0	75	65.6	0	3	315	0.00	29.943 
06:00	73.9	73.9	73.9	75	65.5	0	2	315	0.00	29.953 
06:05	73.7	73.7	73.7	76	65.6	0	1	315	0.00	29.953 
06:10	73.5	73.5	73.5	76	65.5	0	1	315	0.00	29.953 
06:15	73.3	73.3	73.3	76	65.3	0	2	315	0.00	29.959 
06:20	73.0	73.0	73.0	76	65.0	0	1	315	0.00	29.959 
06:25	72.8	72.8	72.8	76	64.8	0	1	315	0.00	29.959 
06:30	72.7	72.7	72.7	77	65.1	0	0	---	0.00	29.966 
06:35	72.5	72.5	72.5	77	64.9	0	0	---	0.00	29.966 
06:40	72.3	72.3	72.3	77	64.7	0	0	---	0.00	29.966 
06:45	72.3	72.3	72.3	77	64.7	0	1	315	0.00	29.968 
06:50	72.1	72.1	72.1	78	64.8	0	0	---	0.00	29.968 
06:55	72.1	72.1	72.1	78	64.8	0	1	315	0.00	29.968 
07:00	72.0	72.0	72.0	78	64.8	0	1	315	0.00	29.969 
07:05	72.0	72.0	72.0	78	64.8	0	1	315	0.00	29.969 
07:10	72.0	72.0	72.0	78	64.8	0	1	315	0.00	29.969 
07:15	71.8	71.8	71.8	73	62.7	1	3	68	0.00	29.969 
07:20	71.6	71.6	71.6	68	60.5	0	3	68	0.00	29.969 
07:25	71.5	71.5	71.5	64	58.7	0	3	68	0.00	29.969 
07:30	71.6	71.6	71.6	62	57.9	0	2	68	0.00	29.979 
07:35	71.8	71.8	71.8	60	57.2	0	1	68	0.00	29.979 
07:40	72.3	72.3	72.3	60	57.6	0	3	68	0.00	29.979 
07:45	72.7	72.7	72.7	58	57.1	0	3	90	0.00	29.985 
07:50	73.0	73.0	73.0	58	57.3	0	2	90	0.00	29.985 
07:55	73.3	73.3	73.3	58	57.6	1	4	90	0.00	29.985 
08:00	73.3	73.3	73.3	55	56.1	1	3	90	0.00	29.990 
08:05	73.5	73.5	73.5	55	56.3	0	3	90	0.00	29.990 
08:10	73.5	73.5	73.5	53	55.3	1	4	112	0.00	29.990 
08:15	73.3	73.3	73.3	49	53.0	1	3	112	0.00	29.998 
08:20	73.2	73.2	73.2	49	52.9	1	3	112	0.00	29.998 
08:25	73.2	73.2	73.2	48	52.3	1	4	112	0.00	29.998 
08:30	73.2	73.2	73.2	48	52.3	1	5	90	0.00	30.003 
08:35	73.0	73.0	73.0	47	51.6	2	6	112	0.00	30.003 
08:40	72.8	72.8	72.8	47	51.4	1	3	112	0.00	30.003 
08:45	72.7	72.7	72.7	46	50.7	2	7	112	0.00	30.010 
08:50	72.7	72.7	72.7	46	50.7	2	6	90	0.00	30.010 
08:55	72.5	72.5	72.5	46	50.5	1	5	90	0.00	30.010 
09:00	72.5	72.5	72.5	46	50.5	1	5	112	0.00	30.020 
09:05	72.3	72.3	72.3	47	50.9	1	4	45	0.00	30.020 
09:10	72.3	72.3	72.3	47	50.9	2	6	112	0.00	30.020 
09:15	72.3	72.3	72.3	47	50.9	1	4	158	0.00	30.030 
09:20	72.5	72.5	72.5	47	51.1	1	4	135	0.00	30.030 
09:25	72.8	72.8	72.8	48	52.0	1	3	90	0.00	30.030 
09:30	73.2	73.2	73.2	46	51.2	0	3	90	0.00	30.035 
09:35	73.3	73.3	73.3	46	51.3	0	2	0	0.00	30.035 
09:40	73.5	73.5	73.5	46	51.4	1	3	112	0.00	30.035 
09:45	73.9	73.9	73.9	44	50.6	1	4	90	0.00	30.033 
09:50	74.0	74.0	74.0	45	51.3	0	4	68	0.00	30.033 
09:55	74.2	74.2	74.2	45	51.5	1	3	315	0.00	30.033 
10:00	74.4	74.4	74.4	43	50.4	0	3	0	0.00	30.039 
10:05	74.0	74.0	74.0	43	50.1	1	6	270	0.00	30.039 
10:10	73.9	73.9	73.9	41	48.7	1	6	112	0.00	30.039 
10:15	74.0	74.0	74.0	43	50.1	0	3	135	0.00	30.039 
10:20	74.0	74.0	74.0	41	48.8	1	3	22	0.00	30.039 
10:25	74.2	74.2	74.2	41	49.0	1	4	112	0.00	30.039 
10:30	74.0	74.0	74.0	39	47.5	1	5	315	0.00	30.041 
10:35	74.4	74.4	74.4	40	48.5	1	5	112	0.00	30.041 
10:40	74.7	74.7	74.7	40	48.8	1	3	112	0.00	30.041 
10:45	75.3	75.3	77.6	40	49.3	1	3	112	0.00	30.037 
10:50	75.6	75.6	77.6	38	48.2	0	3	112	0.00	30.037 
10:55	75.4	75.4	77.6	39	48.7	1	3	112	0.00	30.037 
11:00	75.3	75.3	77.5	39	48.6	1	3	112	0.00	30.038 
11:05	75.3	75.3	77.5	39	48.6	1	5	68	0.00	30.038 
11:10	74.7	74.7	74.7	42	50.1	1	5	68	0.00	30.038 
11:15	74.2	74.2	74.2	39	47.6	1	4	292	0.00	30.040 
11:20	74.4	74.4	74.4	44	51.0	1	4	292	0.00	30.040 
11:25	74.6	74.6	74.6	42	50.0	0	3	292	0.00	30.040 
11:30	74.9	74.9	74.9	39	48.3	1	3	112	0.00	30.045 
11:35	74.9	74.9	74.9	36	46.1	1	4	292	0.00	30.045 
11:40	75.3	75.3	77.5	37	47.2	1	4	270	0.00	30.045 
11:45	76.1	76.1	77.6	35	46.4	1	5	112	0.00	30.046 
11:50	76.3	76.3	77.6	34	45.8	2	6	112	0.00	30.046 
11:55	76.5	76.5	77.8	36	47.5	2	5	112	0.00	30.046 
12:00	76.7	76.7	77.9	35	47.0	0	2	112	0.00	30.038 
12:05	76.8	76.8	77.7	32	44.7	1	4	112	0.00	30.038 
12:10	77.0	77.0	78.0	36	48.0	0	3	68	0.00	30.038 
12:15	77.2	77.2	78.0	34	46.6	1	6	90	0.00	30.038 
12:20	77.2	77.2	78.1	36	48.2	1	5	292	0.00	30.038 
12:25	77.4	77.4	78.1	35	47.6	1	3	292	0.00	30.038 
12:30	77.6	77.6	78.4	38	50.0	0	1	292	0.00	30.033 
12:35	78.1	78.1	78.5	36	48.9	0	4	90	0.00	30.033 
12:40	78.5	78.5	78.4	31	45.3	1	4	90	0.00	30.033 
12:45	78.1	78.1	78.2	30	44.1	1	3	270	0.00	30.026 
12:50	77.9	77.9	78.1	30	43.9	0	3	270	0.00	30.026 
12:55	78.5	78.5	78.7	35	48.5	1	3	270	0.00	30.026 
13:00	78.5	78.5	78.4	31	45.3	1	4	292	0.00	30.023 
13:05	78.3	78.3	78.2	29	43.4	1	4	292	0.00	30.023 
13:10	77.9	77.9	78.0	29	43.1	1	5	292	0.00	30.023 
13:15	78.1	78.1	78.3	32	45.8	1	3	292	0.00	30.022 
13:20	78.5	78.5	78.3	29	43.6	1	3	22	0.00	30.022 
13:25	78.6	78.6	78.5	31	45.4	1	4	135	0.00	30.022 
13:30	78.6	78.6	78.3	28	42.7	1	3	68	0.00	30.020 
13:35	78.6	78.6	78.4	29	43.7	1	5	315	0.00	30.020 
13:40	78.6	78.6	78.3	28	42.7	1	4	292	0.00	30.020 
13:45	78.6	78.6	78.4	29	43.7	0	3	292	0.00	30.022 
13:50	78.6	78.6	78.5	32	46.3	1	3	292	0.00	30.022 
13:55	78.8	78.8	78.4	28	42.9	2	5	292	0.00	30.022 
14:00	78.8	78.8	78.6	31	45.6	1	4	292	0.00	30.025 
14:05	78.8	78.8	78.4	28	42.9	2	5	292	0.00	30.025 
14:10	79.0	79.0	78.7	31	45.8	2	5	292	0.00	30.025 
14:15	79.2	79.2	78.6	28	43.3	1	4	292	0.00	30.023 
14:20	79.4	79.4	78.7	27	42.5	2	7	292	0.00	30.023 
14:25	79.8	79.8	78.9	27	42.8	1	2	292	0.00	30.023 
14:30	79.9	79.9	78.9	26	41.9	1	5	292	0.00	30.018 
14:35	79.9	79.9	78.8	25	40.9	1	3	292	0.00	30.018 
14:40	80.1	80.1	78.9	24	40.0	1	4	338	0.00	30.018 
14:45	80.1	80.1	78.8	23	38.9	2	4	292	0.00	30.022 
14:50	80.3	80.3	79.1	26	42.3	1	3	292	0.00	30.022 
14:55	80.5	80.5	79.2	25	41.4	1	6	292	0.00	30.022 
15:00	80.3	80.3	79.1	26	42.3	2	4	315	0.00	30.020 
15:05	80.3	80.3	79.0	25	41.2	1	4	315	0.00	30.020 
15:10	80.7	80.7	79.3	25	41.6	1	4	90	0.00	30.020 
15:15	80.9	80.9	79.4	25	41.8	1	3	68	0.00	30.007 
15:20	81.1	81.1	79.7	27	43.9	0	3	68	0.00	30.007 
15:25	81.1	81.1	79.6	26	42.9	0	3	338	0.00	30.007 
15:30	81.1	81.1	79.7	27	43.9	1	3	315	0.00	30.004 
15:35	81.1	81.1	79.6	26	42.9	1	7	315	0.00	30.004 
15:40	81.2	81.2	79.8	28	45.0	1	3	292	0.00	30.004 
15:45	81.2	81.2	79.6	25	42.0	0	2	292	0.00	30.005 
15:50	80.9	80.9	79.3	23	39.6	1	3	292	0.00	30.005 
15:55	80.9	80.9	79.2	22	38.5	2	5	292	0.00	30.005 
16:00	80.7	80.7	79.2	24	40.5	1	6	292	0.00	30.005 
16:05	80.7	80.7	79.2	24	40.5	1	4	292	0.00	30.005 
16:10	80.5	80.5	79.2	25	41.4	1	3	292	0.00	30.005 
16:15	80.1	80.1	78.8	23	38.9	2	4	292	0.00	30.005 
16:20	80.3	80.3	78.9	22	38.0	1	3	292	0.00	30.005 
16:25	80.5	80.5	79.1	24	40.4	0	3	292	0.00	30.005 
16:30	80.1	80.1	78.8	22	37.8	2	6	292	0.00	30.006 
16:35	79.9	79.9	78.7	23	38.8	0	3	292	0.00	30.006 
16:40	79.9	79.9	78.6	22	37.6	1	4	292	0.00	30.006 
16:45	79.8	79.8	78.6	23	38.7	0	2	292	0.00	30.004 
16:50	79.6	79.6	78.5	23	38.5	1	2	292	0.00	30.004 
16:55	79.8	79.8	78.8	25	40.8	0	1	292	0.00	30.004 
17:00	79.6	79.6	78.6	24	39.6	0	1	292	0.00	30.006 
17:05	79.4	79.4	78.6	26	41.5	0	1	292	0.00	30.006 
17:10	79.6	79.6	78.6	25	40.7	0	2	292	0.00	30.006 
17:15	79.6	79.6	78.6	25	40.7	1	4	315	0.00	30.006 
17:20	79.4	79.4	78.5	24	39.4	1	4	292	0.00	30.006 
17:25	79.2	79.2	78.5	26	41.3	0	2	292	0.00	30.006 
17:30	79.2	79.2	78.3	23	38.2	0	3	292	0.00	30.005 
17:35	79.0	79.0	78.2	24	39.1	1	4	292	0.00	30.005 
17:40	78.8	78.8	78.2	25	40.0	0	2	292	0.00	30.005 
17:45	78.6	78.6	78.2	26	40.8	0	2	292	0.00	30.002 
17:50	78.3	78.3	78.1	27	41.5	0	2	292	0.00	30.002 
17:55	78.1	78.1	78.0	27	41.4	1	3	292	0.00	30.002 
18:00	77.9	77.9	77.9	27	41.2	0	2	292	0.00	30.008 
18:05	77.9	77.9	77.9	28	42.1	0	2	292	0.00	30.008 
18:10	77.7	77.7	77.9	29	42.9	0	1	292	0.00	30.008 
18:15	77.7	77.7	77.8	27	41.0	1	3	292	0.00	30.008 
18:20	77.7	77.7	77.8	27	41.0	1	3	292	0.00	30.008 
18:25	77.7	77.7	77.8	27	41.0	1	4	292	0.00	30.008 
18:30	77.7	77.7	77.8	28	42.0	0	2	292	0.00	29.997 
18:35	77.7	77.7	77.8	28	42.0	0	2	292	0.00	29.997 
18:40	77.9	77.9	77.8	26	40.2	1	4	315	0.00	29.997 
18:45	78.1	78.1	78.0	28	42.3	0	3	315	0.00	29.998 
18:50	78.3	78.3	78.1	27	41.5	1	3	315	0.00	29.998 
18:55	78.3	78.3	77.9	25	39.6	1	4	315	0.00	29.998 
19:00	78.5	78.5	78.2	27	41.7	1	2	292	0.00	30.001 
19:05	78.6	78.6	78.2	26	40.8	0	3	292	0.00	30.001 
19:10	78.8	78.8	78.3	27	42.0	1	3	292	0.00	30.001 
19:15	78.8	78.8	78.3	26	41.0	2	5	292	0.00	29.998 
19:20	78.6	78.6	78.1	25	39.8	1	4	292	0.00	29.998 
19:25	78.5	78.5	78.1	26	40.7	1	4	292	0.00	29.998 
19:30	78.1	78.1	77.9	26	40.4	1	4	315	0.00	30.000 
19:35	77.9	77.9	77.8	26	40.2	2	4	292	0.00	30.000 
19:40	77.9	77.9	77.9	27	41.2	1	5	292	0.00	30.000 
19:45	77.6	77.6	77.7	27	41.0	0	2	292	0.00	30.004 
19:50	77.0	77.0	77.5	28	41.4	0	2	292	0.00	30.004 
19:55	76.5	76.5	77.3	28	41.0	0	2	292	0.00	30.004 
20:00	76.3	76.3	77.2	27	39.8	0	1	292	0.00	30.008 
20:05	76.0	76.0	77.1	28	40.5	0	1	292	0.00	30.008 
20:10	75.8	75.8	77.1	29	41.3	0	1	292	0.00	30.008 
20:15	75.6	75.6	77.2	31	42.8	0	0	---	0.00	30.010 
20:20	75.4	75.4	77.1	31	42.6	0	1	292	0.00	30.010 
20:25	75.4	75.4	77.1	31	42.6	0	1	292	0.00	30.010 
20:30	75.3	75.3	77.1	31	42.6	0	1	292	0.00	30.014 
20:35	75.1	75.1	77.1	32	43.2	0	1	292	0.00	30.014 
20:40	74.7	74.7	74.7	31	42.0	0	0	---	0.00	30.014 
20:45	74.4	74.4	74.4	31	41.8	0	1	292	0.00	30.013 
20:50	74.0	74.0	74.0	33	43.1	0	0	---	0.00	30.013 
20:55	73.7	73.7	73.7	33	42.8	0	0	---	0.00	30.013 
21:00	73.2	73.2	73.2	34	43.1	0	0	---	0.00	30.009 
21:05	72.8	72.8	72.8	35	43.5	0	0	---	0.00	30.009 
21:10	72.3	72.3	72.3	35	43.1	0	0	---	0.00	30.009 
21:15	71.8	71.8	71.8	36	43.4	0	0	---	0.00	30.013 
21:20	71.5	71.5	71.5	37	43.8	0	0	---	0.00	30.013 
21:25	71.1	71.1	71.1	37	43.5	0	0	---	0.00	30.013 
21:30	70.8	70.8	70.8	38	43.9	0	0	---	0.00	30.017 
21:35	70.6	70.6	70.6	38	43.7	0	1	292	0.00	30.017 
21:40	70.3	70.3	70.3	38	43.5	0	0	---	0.00	30.017 
21:45	69.9	69.9	69.9	39	43.8	0	0	---	0.00	30.027 
21:50	69.6	69.6	69.6	39	43.5	0	0	---	0.00	30.027 
21:55	69.4	69.4	69.4	39	43.4	0	1	292	0.00	30.027 
22:00	69.1	69.1	69.1	40	43.8	0	0	---	0.00	30.032 
22:05	68.9	68.9	68.9	40	43.6	0	0	---	0.00	30.032 
22:10	68.6	68.6	68.6	41	44.0	0	0	---	0.00	30.032 
22:15	68.3	68.3	68.3	42	44.3	0	0	---	0.00	30.037 
22:20	67.9	67.9	67.9	43	44.6	0	1	292	0.00	30.037 
22:25	67.8	67.8	67.8	43	44.5	0	0	---	0.00	30.037 
22:30	67.4	67.4	67.4	44	44.7	0	0	---	0.00	30.046 
22:35	67.1	67.1	67.1	45	45.0	0	0	---	0.00	30.046 
22:40	66.8	66.8	66.8	46	45.3	0	0	---	0.00	30.046 
22:45	66.3	66.3	66.3	46	44.9	0	1	292	0.00	30.051 
22:50	66.3	66.3	66.3	46	44.9	0	1	292	0.00	30.051 
22:55	66.3	66.3	66.3	47	45.5	0	1	292	0.00	30.051 
23:00	66.4	66.4	66.4	49	46.7	0	1	292	0.00	30.051 
23:05	66.4	66.4	66.4	50	47.2	0	1	292	0.00	30.051 
23:10	66.4	66.4	66.4	52	48.2	0	1	292	0.00	30.051 
23:15	66.3	66.3	66.3	53	48.6	0	1	292	0.00	30.050 
23:20	66.1	66.1	66.1	54	49.0	0	1	292	0.00	30.050 
23:25	66.0	66.0	66.0	55	49.4	0	1	292	0.00	30.050 
23:30	65.6	65.6	65.6	56	49.5	0	1	292	0.00	30.048 
23:35	65.5	65.5	65.5	57	49.9	0	1	292	0.00	30.048 
23:40	65.2	65.2	65.2	58	50.0	0	1	292	0.00	30.048 
23:45	65.0	65.0	65.0	59	50.3	0	1	292	0.00	30.041 
23:50	64.8	64.8	64.8	60	50.6	0	2	292	0.00	30.041 
23:55	64.7	64.7	64.7	60	50.5	0	2	292	0.00	30.041 

CoCoRaHS
IN-AL-39
A2 Web Hosting
Creative Commons License
GoDaddy
search engine by freefind advanced

loaded 2018-11-20 03:50:16 • last modified 2010-11-18 10:43:29
Privacy PolicyDisclaimer
• wx.awcolley.com is powered by PmWiki v.2002016 •
• all content (unless otherwise noted) © 2018 A W Colley